sensor_id;sensor_type;location;lat;lon;timestamp;temperature;humidity
45549;DHT22;31270;48.328;10.096;2024-01-30T00:01:17;1.30;99.90
45549;DHT22;31270;48.328;10.096;2024-01-30T00:03:43;1.30;99.90
45549;DHT22;31270;48.328;10.096;2024-01-30T00:06:09;1.20;99.90
45549;DHT22;31270;48.328;10.096;2024-01-30T00:08:34;1.10;99.90
45549;DHT22;31270;48.328;10.096;2024-01-30T00:11:00;1.20;99.90
45549;DHT22;31270;48.328;10.096;2024-01-30T00:13:26;1.10;99.90
45549;DHT22;31270;48.328;10.096;2024-01-30T00:15:52;1.10;99.90
45549;DHT22;31270;48.328;10.096;2024-01-30T00:18:18;1.10;99.90
45549;DHT22;31270;48.328;10.096;2024-01-30T00:20:44;1.00;99.90
45549;DHT22;31270;48.328;10.096;2024-01-30T00:23:10;1.00;99.90
45549;DHT22;31270;48.328;10.096;2024-01-30T00:25:35;1.00;99.90
45549;DHT22;31270;48.328;10.096;2024-01-30T00:28:01;1.00;99.90
45549;DHT22;31270;48.328;10.096;2024-01-30T00:30:27;0.90;99.90
45549;DHT22;31270;48.328;10.096;2024-01-30T00:32:53;0.80;99.90
45549;DHT22;31270;48.328;10.096;2024-01-30T00:35:19;0.80;99.90
45549;DHT22;31270;48.328;10.096;2024-01-30T00:37:45;0.80;99.90
45549;DHT22;31270;48.328;10.096;2024-01-30T00:40:11;0.80;99.90
45549;DHT22;31270;48.328;10.096;2024-01-30T00:42:42;0.90;99.90
45549;DHT22;31270;48.328;10.096;2024-01-30T00:45:14;0.90;99.90
45549;DHT22;31270;48.328;10.096;2024-01-30T00:47:41;0.90;99.90
45549;DHT22;31270;48.328;10.096;2024-01-30T00:50:06;0.90;99.90
45549;DHT22;31270;48.328;10.096;2024-01-30T00:52:32;0.90;99.90
45549;DHT22;31270;48.328;10.096;2024-01-30T00:54:59;0.80;99.90
45549;DHT22;31270;48.328;10.096;2024-01-30T00:57:25;0.90;99.90
45549;DHT22;31270;48.328;10.096;2024-01-30T00:59:50;0.90;99.90
45549;DHT22;31270;48.328;10.096;2024-01-30T01:02:16;0.90;99.90
45549;DHT22;31270;48.328;10.096;2024-01-30T01:04:43;0.90;99.90
45549;DHT22;31270;48.328;10.096;2024-01-30T01:07:10;0.90;99.90
45549;DHT22;31270;48.328;10.096;2024-01-30T01:09:35;0.90;99.90
45549;DHT22;31270;48.328;10.096;2024-01-30T01:12:02;0.80;99.90
45549;DHT22;31270;48.328;10.096;2024-01-30T01:14:28;0.80;99.90
45549;DHT22;31270;48.328;10.096;2024-01-30T01:16:53;0.70;99.90
45549;DHT22;31270;48.328;10.096;2024-01-30T01:19:19;0.70;99.90
45549;DHT22;31270;48.328;10.096;2024-01-30T01:21:44;0.70;99.90
45549;DHT22;31270;48.328;10.096;2024-01-30T01:24:10;0.80;99.90
45549;DHT22;31270;48.328;10.096;2024-01-30T01:26:36;0.70;99.90
45549;DHT22;31270;48.328;10.096;2024-01-30T01:29:01;0.70;99.90
45549;DHT22;31270;48.328;10.096;2024-01-30T01:31:29;0.60;99.90
45549;DHT22;31270;48.328;10.096;2024-01-30T01:33:55;0.60;99.90
45549;DHT22;31270;48.328;10.096;2024-01-30T01:36:21;0.60;99.90
45549;DHT22;31270;48.328;10.096;2024-01-30T01:38:46;0.50;99.90
45549;DHT22;31270;48.328;10.096;2024-01-30T01:41:12;0.50;99.90
45549;DHT22;31270;48.328;10.096;2024-01-30T01:43:38;0.50;99.90
45549;DHT22;31270;48.328;10.096;2024-01-30T01:46:05;0.50;99.90
45549;DHT22;31270;48.328;10.096;2024-01-30T01:48:32;0.50;99.90
45549;DHT22;31270;48.328;10.096;2024-01-30T01:50:58;0.50;99.90
45549;DHT22;31270;48.328;10.096;2024-01-30T01:53:24;0.50;99.90
45549;DHT22;31270;48.328;10.096;2024-01-30T01:55:51;0.50;99.90
45549;DHT22;31270;48.328;10.096;2024-01-30T01:58:19;0.50;99.90
45549;DHT22;31270;48.328;10.096;2024-01-30T02:00:46;0.50;99.90
45549;DHT22;31270;48.328;10.096;2024-01-30T02:03:12;0.50;99.90
45549;DHT22;31270;48.328;10.096;2024-01-30T02:05:41;0.60;99.90
45549;DHT22;31270;48.328;10.096;2024-01-30T02:08:08;0.60;99.90
45549;DHT22;31270;48.328;10.096;2024-01-30T02:10:34;0.60;99.90
45549;DHT22;31270;48.328;10.096;2024-01-30T02:12:59;0.60;99.90
45549;DHT22;31270;48.328;10.096;2024-01-30T02:15:25;0.60;99.90
45549;DHT22;31270;48.328;10.096;2024-01-30T02:17:51;0.70;99.90
45549;DHT22;31270;48.328;10.096;2024-01-30T02:20:17;0.70;99.90
45549;DHT22;31270;48.328;10.096;2024-01-30T02:22:43;0.70;99.90
45549;DHT22;31270;48.328;10.096;2024-01-30T02:25:08;0.70;99.90
45549;DHT22;31270;48.328;10.096;2024-01-30T02:27:34;0.70;99.90
45549;DHT22;31270;48.328;10.096;2024-01-30T02:30:00;0.70;99.90
45549;DHT22;31270;48.328;10.096;2024-01-30T02:32:25;0.70;99.90
45549;DHT22;31270;48.328;10.096;2024-01-30T02:34:51;0.70;99.90
45549;DHT22;31270;48.328;10.096;2024-01-30T02:37:17;0.70;99.90
45549;DHT22;31270;48.328;10.096;2024-01-30T02:39:42;0.60;99.90
45549;DHT22;31270;48.328;10.096;2024-01-30T02:42:08;0.60;99.90
45549;DHT22;31270;48.328;10.096;2024-01-30T02:44:34;0.70;99.90
45549;DHT22;31270;48.328;10.096;2024-01-30T02:46:59;0.70;99.90
45549;DHT22;31270;48.328;10.096;2024-01-30T02:49:25;0.70;99.90
45549;DHT22;31270;48.328;10.096;2024-01-30T02:51:52;0.70;99.90
45549;DHT22;31270;48.328;10.096;2024-01-30T02:54:18;0.80;99.90
45549;DHT22;31270;48.328;10.096;2024-01-30T02:56:43;0.80;99.90
45549;DHT22;31270;48.328;10.096;2024-01-30T02:59:09;0.80;99.90
45549;DHT22;31270;48.328;10.096;2024-01-30T03:01:45;0.80;99.90
45549;DHT22;31270;48.328;10.096;2024-01-30T03:04:11;0.80;99.90
45549;DHT22;31270;48.328;10.096;2024-01-30T03:06:38;0.70;99.90
45549;DHT22;31270;48.328;10.096;2024-01-30T03:09:03;0.70;99.90
45549;DHT22;31270;48.328;10.096;2024-01-30T03:11:30;0.70;99.90
45549;DHT22;31270;48.328;10.096;2024-01-30T03:13:56;0.90;99.90
45549;DHT22;31270;48.328;10.096;2024-01-30T03:16:21;0.70;99.90
45549;DHT22;31270;48.328;10.096;2024-01-30T03:18:47;0.70;99.90
45549;DHT22;31270;48.328;10.096;2024-01-30T03:21:14;0.70;99.90
45549;DHT22;31270;48.328;10.096;2024-01-30T03:23:40;0.70;99.90
45549;DHT22;31270;48.328;10.096;2024-01-30T03:26:05;0.60;99.90
45549;DHT22;31270;48.328;10.096;2024-01-30T03:28:32;0.60;99.90
45549;DHT22;31270;48.328;10.096;2024-01-30T03:30:57;0.60;99.90
45549;DHT22;31270;48.328;10.096;2024-01-30T03:33:23;0.50;99.90
45549;DHT22;31270;48.328;10.096;2024-01-30T03:35:49;0.50;99.90
45549;DHT22;31270;48.328;10.096;2024-01-30T03:38:14;0.50;99.90
45549;DHT22;31270;48.328;10.096;2024-01-30T03:40:40;0.40;99.90
45549;DHT22;31270;48.328;10.096;2024-01-30T03:43:05;0.40;99.90
45549;DHT22;31270;48.328;10.096;2024-01-30T03:45:31;0.30;99.90
45549;DHT22;31270;48.328;10.096;2024-01-30T03:47:56;0.30;99.90
45549;DHT22;31270;48.328;10.096;2024-01-30T03:50:22;0.30;99.90
45549;DHT22;31270;48.328;10.096;2024-01-30T03:52:48;0.20;99.90
45549;DHT22;31270;48.328;10.096;2024-01-30T03:55:13;0.20;99.90
45549;DHT22;31270;48.328;10.096;2024-01-30T03:57:39;0.20;99.90
45549;DHT22;31270;48.328;10.096;2024-01-30T04:00:06;0.10;99.90
45549;DHT22;31270;48.328;10.096;2024-01-30T04:02:31;0.10;99.90
45549;DHT22;31270;48.328;10.096;2024-01-30T04:04:57;0.00;99.90
45549;DHT22;31270;48.328;10.096;2024-01-30T04:07:24;0.00;99.90
45549;DHT22;31270;48.328;10.096;2024-01-30T04:09:49;-0.10;99.90
45549;DHT22;31270;48.328;10.096;2024-01-30T04:12:15;0.00;99.90
45549;DHT22;31270;48.328;10.096;2024-01-30T04:14:40;-0.10;99.90
45549;DHT22;31270;48.328;10.096;2024-01-30T04:17:06;-0.10;99.90
45549;DHT22;31270;48.328;10.096;2024-01-30T04:19:32;-0.10;99.90
45549;DHT22;31270;48.328;10.096;2024-01-30T04:21:57;-0.20;99.90
45549;DHT22;31270;48.328;10.096;2024-01-30T04:24:23;-0.20;99.90
45549;DHT22;31270;48.328;10.096;2024-01-30T04:26:48;-0.20;99.90
45549;DHT22;31270;48.328;10.096;2024-01-30T04:29:14;-0.20;99.90
45549;DHT22;31270;48.328;10.096;2024-01-30T04:31:40;-0.20;99.90
45549;DHT22;31270;48.328;10.096;2024-01-30T04:34:05;-0.20;99.90
45549;DHT22;31270;48.328;10.096;2024-01-30T04:36:31;-0.20;99.90
45549;DHT22;31270;48.328;10.096;2024-01-30T04:38:57;-0.20;99.90
45549;DHT22;31270;48.328;10.096;2024-01-30T04:41:23;-0.20;99.90
45549;DHT22;31270;48.328;10.096;2024-01-30T04:43:48;-0.10;99.90
45549;DHT22;31270;48.328;10.096;2024-01-30T04:46:14;-0.10;99.90
45549;DHT22;31270;48.328;10.096;2024-01-30T04:48:40;0.00;99.90
45549;DHT22;31270;48.328;10.096;2024-01-30T04:51:05;0.00;99.90
45549;DHT22;31270;48.328;10.096;2024-01-30T04:53:31;0.20;99.90
45549;DHT22;31270;48.328;10.096;2024-01-30T04:55:57;0.10;99.90
45549;DHT22;31270;48.328;10.096;2024-01-30T04:58:22;0.10;99.90
45549;DHT22;31270;48.328;10.096;2024-01-30T05:00:48;0.10;99.90
45549;DHT22;31270;48.328;10.096;2024-01-30T05:03:18;0.30;99.90
45549;DHT22;31270;48.328;10.096;2024-01-30T05:05:44;0.20;99.90
45549;DHT22;31270;48.328;10.096;2024-01-30T05:08:10;0.20;99.90
45549;DHT22;31270;48.328;10.096;2024-01-30T05:10:35;0.20;99.90
45549;DHT22;31270;48.328;10.096;2024-01-30T05:13:01;0.20;99.90
45549;DHT22;31270;48.328;10.096;2024-01-30T05:15:26;0.30;99.90
45549;DHT22;31270;48.328;10.096;2024-01-30T05:17:52;0.30;99.90
45549;DHT22;31270;48.328;10.096;2024-01-30T05:20:19;0.30;99.90
45549;DHT22;31270;48.328;10.096;2024-01-30T05:22:45;0.30;99.90
45549;DHT22;31270;48.328;10.096;2024-01-30T05:25:12;0.40;99.90
45549;DHT22;31270;48.328;10.096;2024-01-30T05:27:38;0.40;99.90
45549;DHT22;31270;48.328;10.096;2024-01-30T05:30:06;0.30;99.90
45549;DHT22;31270;48.328;10.096;2024-01-30T05:32:31;0.30;99.90
45549;DHT22;31270;48.328;10.096;2024-01-30T05:34:57;0.30;99.90
45549;DHT22;31270;48.328;10.096;2024-01-30T05:37:23;0.30;99.90
45549;DHT22;31270;48.328;10.096;2024-01-30T05:39:48;0.30;99.90
45549;DHT22;31270;48.328;10.096;2024-01-30T05:42:14;0.30;99.90
45549;DHT22;31270;48.328;10.096;2024-01-30T05:44:42;0.30;99.90
45549;DHT22;31270;48.328;10.096;2024-01-30T05:47:08;0.30;99.90
45549;DHT22;31270;48.328;10.096;2024-01-30T05:49:33;0.30;99.90
45549;DHT22;31270;48.328;10.096;2024-01-30T05:52:02;0.20;99.90
45549;DHT22;31270;48.328;10.096;2024-01-30T05:54:28;0.30;99.90
45549;DHT22;31270;48.328;10.096;2024-01-30T05:56:54;0.30;99.90
45549;DHT22;31270;48.328;10.096;2024-01-30T05:59:19;0.30;99.90
45549;DHT22;31270;48.328;10.096;2024-01-30T06:01:46;0.20;99.90
45549;DHT22;31270;48.328;10.096;2024-01-30T06:04:12;0.20;99.90
45549;DHT22;31270;48.328;10.096;2024-01-30T06:06:38;0.20;99.90
45549;DHT22;31270;48.328;10.096;2024-01-30T06:09:03;0.20;99.90
45549;DHT22;31270;48.328;10.096;2024-01-30T06:11:32;0.30;99.90
45549;DHT22;31270;48.328;10.096;2024-01-30T06:13:58;0.30;99.90
45549;DHT22;31270;48.328;10.096;2024-01-30T06:16:24;0.20;99.90
45549;DHT22;31270;48.328;10.096;2024-01-30T06:18:51;0.20;99.90
45549;DHT22;31270;48.328;10.096;2024-01-30T06:21:17;0.20;99.90
45549;DHT22;31270;48.328;10.096;2024-01-30T06:23:42;0.20;99.90
45549;DHT22;31270;48.328;10.096;2024-01-30T06:26:08;0.20;99.90
45549;DHT22;31270;48.328;10.096;2024-01-30T06:28:33;0.20;99.90
45549;DHT22;31270;48.328;10.096;2024-01-30T06:31:01;0.20;99.90
45549;DHT22;31270;48.328;10.096;2024-01-30T06:33:26;0.20;99.90
45549;DHT22;31270;48.328;10.096;2024-01-30T06:35:52;0.20;99.90
45549;DHT22;31270;48.328;10.096;2024-01-30T06:38:18;0.20;99.90
45549;DHT22;31270;48.328;10.096;2024-01-30T06:40:43;0.10;99.90
45549;DHT22;31270;48.328;10.096;2024-01-30T06:43:09;0.10;99.90
45549;DHT22;31270;48.328;10.096;2024-01-30T06:45:34;0.10;99.90
45549;DHT22;31270;48.328;10.096;2024-01-30T06:48:00;0.10;99.90
45549;DHT22;31270;48.328;10.096;2024-01-30T06:50:26;0.10;99.90
45549;DHT22;31270;48.328;10.096;2024-01-30T06:52:51;0.10;99.90
45549;DHT22;31270;48.328;10.096;2024-01-30T06:55:18;0.00;99.90
45549;DHT22;31270;48.328;10.096;2024-01-30T06:57:44;0.10;99.90
45549;DHT22;31270;48.328;10.096;2024-01-30T07:00:10;0.10;99.90
45549;DHT22;31270;48.328;10.096;2024-01-30T07:02:36;0.10;99.90
45549;DHT22;31270;48.328;10.096;2024-01-30T07:05:02;0.10;99.90
45549;DHT22;31270;48.328;10.096;2024-01-30T07:07:28;0.10;99.90
45549;DHT22;31270;48.328;10.096;2024-01-30T07:09:54;0.20;99.90
45549;DHT22;31270;48.328;10.096;2024-01-30T07:12:24;0.20;99.90
45549;DHT22;31270;48.328;10.096;2024-01-30T07:14:51;0.20;99.90
45549;DHT22;31270;48.328;10.096;2024-01-30T07:17:17;0.30;99.90
45549;DHT22;31270;48.328;10.096;2024-01-30T07:19:43;0.30;99.90
45549;DHT22;31270;48.328;10.096;2024-01-30T07:22:08;0.30;99.90
45549;DHT22;31270;48.328;10.096;2024-01-30T07:24:34;0.40;99.90
45549;DHT22;31270;48.328;10.096;2024-01-30T07:27:00;0.40;99.90
45549;DHT22;31270;48.328;10.096;2024-01-30T07:29:25;0.40;99.90
45549;DHT22;31270;48.328;10.096;2024-01-30T07:31:51;0.50;99.90
45549;DHT22;31270;48.328;10.096;2024-01-30T07:34:17;0.50;99.90
45549;DHT22;31270;48.328;10.096;2024-01-30T07:36:43;0.50;99.90
45549;DHT22;31270;48.328;10.096;2024-01-30T07:39:08;0.50;99.90
45549;DHT22;31270;48.328;10.096;2024-01-30T07:41:35;0.60;99.90
45549;DHT22;31270;48.328;10.096;2024-01-30T07:44:01;0.70;99.90
45549;DHT22;31270;48.328;10.096;2024-01-30T07:46:26;0.70;99.90
45549;DHT22;31270;48.328;10.096;2024-01-30T07:48:52;0.70;99.90
45549;DHT22;31270;48.328;10.096;2024-01-30T07:51:18;0.80;99.90
45549;DHT22;31270;48.328;10.096;2024-01-30T07:53:44;0.80;99.90
45549;DHT22;31270;48.328;10.096;2024-01-30T07:56:10;0.90;99.90
45549;DHT22;31270;48.328;10.096;2024-01-30T07:58:36;0.90;99.90
45549;DHT22;31270;48.328;10.096;2024-01-30T08:01:02;0.90;99.90
45549;DHT22;31270;48.328;10.096;2024-01-30T08:03:28;1.00;99.90
45549;DHT22;31270;48.328;10.096;2024-01-30T08:05:54;1.10;99.90
45549;DHT22;31270;48.328;10.096;2024-01-30T08:08:20;1.10;99.90
45549;DHT22;31270;48.328;10.096;2024-01-30T08:10:45;1.10;99.90
45549;DHT22;31270;48.328;10.096;2024-01-30T08:13:11;1.20;99.90
45549;DHT22;31270;48.328;10.096;2024-01-30T08:15:36;1.20;99.90
45549;DHT22;31270;48.328;10.096;2024-01-30T08:18:02;1.50;99.90
45549;DHT22;31270;48.328;10.096;2024-01-30T08:20:28;1.40;99.90
45549;DHT22;31270;48.328;10.096;2024-01-30T08:22:54;1.40;99.90
45549;DHT22;31270;48.328;10.096;2024-01-30T08:25:19;1.50;99.90
45549;DHT22;31270;48.328;10.096;2024-01-30T08:27:45;1.60;99.90
45549;DHT22;31270;48.328;10.096;2024-01-30T08:30:11;1.60;99.90
45549;DHT22;31270;48.328;10.096;2024-01-30T08:32:36;1.70;99.90
45549;DHT22;31270;48.328;10.096;2024-01-30T08:35:02;2.00;99.90
45549;DHT22;31270;48.328;10.096;2024-01-30T08:37:31;1.80;99.90
45549;DHT22;31270;48.328;10.096;2024-01-30T08:39:57;2.00;99.90
45549;DHT22;31270;48.328;10.096;2024-01-30T08:42:23;2.00;99.90
45549;DHT22;31270;48.328;10.096;2024-01-30T08:44:49;2.00;99.90
45549;DHT22;31270;48.328;10.096;2024-01-30T08:47:16;2.10;99.90
45549;DHT22;31270;48.328;10.096;2024-01-30T08:49:43;2.10;99.90
45549;DHT22;31270;48.328;10.096;2024-01-30T08:52:10;2.20;99.90
45549;DHT22;31270;48.328;10.096;2024-01-30T08:54:35;2.30;99.90
45549;DHT22;31270;48.328;10.096;2024-01-30T08:57:01;2.30;99.90
45549;DHT22;31270;48.328;10.096;2024-01-30T08:59:27;2.40;99.90
45549;DHT22;31270;48.328;10.096;2024-01-30T09:01:53;2.50;99.90
45549;DHT22;31270;48.328;10.096;2024-01-30T09:04:21;2.60;99.90
45549;DHT22;31270;48.328;10.096;2024-01-30T09:06:47;2.70;99.90
45549;DHT22;31270;48.328;10.096;2024-01-30T09:09:13;2.80;99.90
45549;DHT22;31270;48.328;10.096;2024-01-30T09:11:40;2.90;99.90
45549;DHT22;31270;48.328;10.096;2024-01-30T09:14:05;2.90;99.90
45549;DHT22;31270;48.328;10.096;2024-01-30T09:16:31;3.00;99.90
45549;DHT22;31270;48.328;10.096;2024-01-30T09:18:57;3.10;99.90
45549;DHT22;31270;48.328;10.096;2024-01-30T09:21:22;3.20;99.90
45549;DHT22;31270;48.328;10.096;2024-01-30T09:23:48;3.30;99.90
45549;DHT22;31270;48.328;10.096;2024-01-30T09:26:14;3.40;99.90
45549;DHT22;31270;48.328;10.096;2024-01-30T09:28:40;3.50;99.90
45549;DHT22;31270;48.328;10.096;2024-01-30T09:31:11;3.60;99.90
45549;DHT22;31270;48.328;10.096;2024-01-30T09:33:38;3.70;99.90
45549;DHT22;31270;48.328;10.096;2024-01-30T09:36:05;3.70;99.90
45549;DHT22;31270;48.328;10.096;2024-01-30T09:38:30;3.70;99.90
45549;DHT22;31270;48.328;10.096;2024-01-30T09:40:57;3.70;99.90
45549;DHT22;31270;48.328;10.096;2024-01-30T09:43:31;3.80;99.90
45549;DHT22;31270;48.328;10.096;2024-01-30T09:45:59;3.80;99.90
45549;DHT22;31270;48.328;10.096;2024-01-30T09:48:26;3.90;99.90
45549;DHT22;31270;48.328;10.096;2024-01-30T09:50:52;3.90;99.90
45549;DHT22;31270;48.328;10.096;2024-01-30T09:53:19;4.00;99.90
45549;DHT22;31270;48.328;10.096;2024-01-30T09:55:45;4.00;99.90
45549;DHT22;31270;48.328;10.096;2024-01-30T09:58:12;4.10;99.90
45549;DHT22;31270;48.328;10.096;2024-01-30T10:00:38;4.10;99.90
45549;DHT22;31270;48.328;10.096;2024-01-30T10:03:04;4.20;99.90
45549;DHT22;31270;48.328;10.096;2024-01-30T10:05:31;4.20;99.90
45549;DHT22;31270;48.328;10.096;2024-01-30T10:07:59;4.20;99.90
45549;DHT22;31270;48.328;10.096;2024-01-30T10:10:25;4.40;99.90
45549;DHT22;31270;48.328;10.096;2024-01-30T10:12:50;4.40;99.90
45549;DHT22;31270;48.328;10.096;2024-01-30T10:15:17;4.50;99.90
45549;DHT22;31270;48.328;10.096;2024-01-30T10:17:45;4.50;99.90
45549;DHT22;31270;48.328;10.096;2024-01-30T10:20:11;4.60;99.90
45549;DHT22;31270;48.328;10.096;2024-01-30T10:22:37;4.60;99.90
45549;DHT22;31270;48.328;10.096;2024-01-30T10:25:03;4.70;99.90
45549;DHT22;31270;48.328;10.096;2024-01-30T10:27:30;4.70;99.90
45549;DHT22;31270;48.328;10.096;2024-01-30T10:29:56;4.80;99.90
45549;DHT22;31270;48.328;10.096;2024-01-30T10:32:21;4.80;99.90
45549;DHT22;31270;48.328;10.096;2024-01-30T10:34:47;4.90;99.90
45549;DHT22;31270;48.328;10.096;2024-01-30T10:37:13;5.00;99.90
45549;DHT22;31270;48.328;10.096;2024-01-30T10:39:42;5.10;99.90
45549;DHT22;31270;48.328;10.096;2024-01-30T10:42:13;5.20;99.90
45549;DHT22;31270;48.328;10.096;2024-01-30T10:45:11;5.30;99.90
45549;DHT22;31270;48.328;10.096;2024-01-30T10:47:44;5.40;99.90
45549;DHT22;31270;48.328;10.096;2024-01-30T10:50:09;5.50;99.90
45549;DHT22;31270;48.328;10.096;2024-01-30T10:52:36;5.60;99.90
45549;DHT22;31270;48.328;10.096;2024-01-30T10:55:04;5.80;99.90
45549;DHT22;31270;48.328;10.096;2024-01-30T10:57:34;5.80;99.90
45549;DHT22;31270;48.328;10.096;2024-01-30T11:00:01;5.90;99.90
45549;DHT22;31270;48.328;10.096;2024-01-30T11:02:31;6.00;99.90
45549;DHT22;31270;48.328;10.096;2024-01-30T11:04:59;6.00;99.90
45549;DHT22;31270;48.328;10.096;2024-01-30T11:07:29;6.00;99.90
45549;DHT22;31270;48.328;10.096;2024-01-30T11:12:27;6.10;99.90
45549;DHT22;31270;48.328;10.096;2024-01-30T11:15:07;6.20;99.90
45549;DHT22;31270;48.328;10.096;2024-01-30T11:20:16;6.50;99.90
45549;DHT22;31270;48.328;10.096;2024-01-30T11:22:44;6.60;99.90
45549;DHT22;31270;48.328;10.096;2024-01-30T11:25:17;6.80;99.90
45549;DHT22;31270;48.328;10.096;2024-01-30T11:27:43;7.00;99.90
45549;DHT22;31270;48.328;10.096;2024-01-30T11:30:09;7.20;99.90
45549;DHT22;31270;48.328;10.096;2024-01-30T11:32:35;7.30;99.90
45549;DHT22;31270;48.328;10.096;2024-01-30T11:35:04;7.40;99.90
45549;DHT22;31270;48.328;10.096;2024-01-30T11:37:32;7.50;99.90
45549;DHT22;31270;48.328;10.096;2024-01-30T11:39:58;7.60;99.90
45549;DHT22;31270;48.328;10.096;2024-01-30T11:42:24;7.60;99.90
45549;DHT22;31270;48.328;10.096;2024-01-30T11:44:51;7.70;99.90
45549;DHT22;31270;48.328;10.096;2024-01-30T11:47:17;7.80;99.90
45549;DHT22;31270;48.328;10.096;2024-01-30T11:49:43;7.90;99.90
45549;DHT22;31270;48.328;10.096;2024-01-30T11:52:09;8.00;99.90
45549;DHT22;31270;48.328;10.096;2024-01-30T11:54:35;8.20;99.90
45549;DHT22;31270;48.328;10.096;2024-01-30T11:57:01;8.30;99.90
45549;DHT22;31270;48.328;10.096;2024-01-30T11:59:26;8.40;99.90
45549;DHT22;31270;48.328;10.096;2024-01-30T12:01:52;8.50;99.90
45549;DHT22;31270;48.328;10.096;2024-01-30T12:04:18;8.50;99.90
45549;DHT22;31270;48.328;10.096;2024-01-30T12:06:44;8.60;99.90
45549;DHT22;31270;48.328;10.096;2024-01-30T12:09:10;8.60;99.90
45549;DHT22;31270;48.328;10.096;2024-01-30T12:11:44;8.70;99.90
45549;DHT22;31270;48.328;10.096;2024-01-30T12:14:11;8.70;99.90
45549;DHT22;31270;48.328;10.096;2024-01-30T12:16:37;8.80;99.90
45549;DHT22;31270;48.328;10.096;2024-01-30T12:19:03;8.80;99.90
45549;DHT22;31270;48.328;10.096;2024-01-30T12:21:29;8.80;99.90
45549;DHT22;31270;48.328;10.096;2024-01-30T12:23:56;8.90;99.90
45549;DHT22;31270;48.328;10.096;2024-01-30T12:26:22;8.90;99.90
45549;DHT22;31270;48.328;10.096;2024-01-30T12:28:48;8.90;99.90
45549;DHT22;31270;48.328;10.096;2024-01-30T12:31:15;9.00;99.90
45549;DHT22;31270;48.328;10.096;2024-01-30T12:33:41;9.00;99.90
45549;DHT22;31270;48.328;10.096;2024-01-30T12:36:06;9.10;99.90
45549;DHT22;31270;48.328;10.096;2024-01-30T12:38:32;9.20;99.90
45549;DHT22;31270;48.328;10.096;2024-01-30T12:40:58;9.20;99.90
45549;DHT22;31270;48.328;10.096;2024-01-30T12:43:25;9.10;99.90
45549;DHT22;31270;48.328;10.096;2024-01-30T12:45:52;9.30;99.90
45549;DHT22;31270;48.328;10.096;2024-01-30T12:48:18;9.30;99.90
45549;DHT22;31270;48.328;10.096;2024-01-30T12:50:43;9.30;99.90
45549;DHT22;31270;48.328;10.096;2024-01-30T12:53:09;9.40;99.90
45549;DHT22;31270;48.328;10.096;2024-01-30T12:55:35;9.40;99.90
45549;DHT22;31270;48.328;10.096;2024-01-30T12:58:01;9.40;99.90
45549;DHT22;31270;48.328;10.096;2024-01-30T13:00:26;9.40;99.90
45549;DHT22;31270;48.328;10.096;2024-01-30T13:02:52;9.40;99.90
45549;DHT22;31270;48.328;10.096;2024-01-30T13:05:18;9.30;99.90
45549;DHT22;31270;48.328;10.096;2024-01-30T13:07:44;9.30;99.90
45549;DHT22;31270;48.328;10.096;2024-01-30T13:10:09;9.40;99.90
45549;DHT22;31270;48.328;10.096;2024-01-30T13:12:35;9.40;99.90
45549;DHT22;31270;48.328;10.096;2024-01-30T13:15:02;9.40;99.90
45549;DHT22;31270;48.328;10.096;2024-01-30T13:17:31;9.60;99.90
45549;DHT22;31270;48.328;10.096;2024-01-30T13:19:57;9.50;99.90
45549;DHT22;31270;48.328;10.096;2024-01-30T13:22:23;9.60;99.90
45549;DHT22;31270;48.328;10.096;2024-01-30T13:24:49;9.60;99.90
45549;DHT22;31270;48.328;10.096;2024-01-30T13:27:15;9.60;99.90
45549;DHT22;31270;48.328;10.096;2024-01-30T13:29:41;9.70;99.90
45549;DHT22;31270;48.328;10.096;2024-01-30T13:32:07;9.80;99.90
45549;DHT22;31270;48.328;10.096;2024-01-30T13:34:32;9.80;99.90
45549;DHT22;31270;48.328;10.096;2024-01-30T13:36:58;9.80;99.90
45549;DHT22;31270;48.328;10.096;2024-01-30T13:39:24;9.80;99.90
45549;DHT22;31270;48.328;10.096;2024-01-30T13:41:49;9.80;99.90
45549;DHT22;31270;48.328;10.096;2024-01-30T13:44:16;9.90;99.90
45549;DHT22;31270;48.328;10.096;2024-01-30T13:46:45;9.90;99.90
45549;DHT22;31270;48.328;10.096;2024-01-30T13:49:12;9.90;99.90
45549;DHT22;31270;48.328;10.096;2024-01-30T13:51:37;10.00;99.90
45549;DHT22;31270;48.328;10.096;2024-01-30T13:54:03;10.00;99.90
45549;DHT22;31270;48.328;10.096;2024-01-30T13:56:29;10.00;99.90
45549;DHT22;31270;48.328;10.096;2024-01-30T13:58:55;10.00;99.90
45549;DHT22;31270;48.328;10.096;2024-01-30T14:01:22;9.90;99.90
45549;DHT22;31270;48.328;10.096;2024-01-30T14:03:48;9.90;99.90
45549;DHT22;31270;48.328;10.096;2024-01-30T14:06:13;9.90;99.90
45549;DHT22;31270;48.328;10.096;2024-01-30T14:08:39;10.00;99.90
45549;DHT22;31270;48.328;10.096;2024-01-30T14:11:05;9.90;99.90
45549;DHT22;31270;48.328;10.096;2024-01-30T14:13:31;9.80;99.90
45549;DHT22;31270;48.328;10.096;2024-01-30T14:15:58;9.80;99.90
45549;DHT22;31270;48.328;10.096;2024-01-30T14:18:24;9.90;99.90
45549;DHT22;31270;48.328;10.096;2024-01-30T14:20:51;9.80;99.90
45549;DHT22;31270;48.328;10.096;2024-01-30T14:23:17;9.80;99.90
45549;DHT22;31270;48.328;10.096;2024-01-30T14:25:43;9.80;99.90
45549;DHT22;31270;48.328;10.096;2024-01-30T14:28:08;9.80;99.90
45549;DHT22;31270;48.328;10.096;2024-01-30T14:30:34;9.80;99.90
45549;DHT22;31270;48.328;10.096;2024-01-30T14:33:01;9.80;99.90
45549;DHT22;31270;48.328;10.096;2024-01-30T14:35:27;9.70;99.90
45549;DHT22;31270;48.328;10.096;2024-01-30T14:37:53;9.60;99.90
45549;DHT22;31270;48.328;10.096;2024-01-30T14:40:19;9.60;99.90
45549;DHT22;31270;48.328;10.096;2024-01-30T14:42:45;9.50;99.90
45549;DHT22;31270;48.328;10.096;2024-01-30T14:45:11;9.60;99.90
45549;DHT22;31270;48.328;10.096;2024-01-30T14:47:37;9.50;99.90
45549;DHT22;31270;48.328;10.096;2024-01-30T14:50:05;9.50;99.90
45549;DHT22;31270;48.328;10.096;2024-01-30T14:52:31;9.40;99.90
45549;DHT22;31270;48.328;10.096;2024-01-30T14:54:57;9.30;99.90
45549;DHT22;31270;48.328;10.096;2024-01-30T14:57:24;9.30;99.90
45549;DHT22;31270;48.328;10.096;2024-01-30T14:59:50;9.20;99.90
45549;DHT22;31270;48.328;10.096;2024-01-30T15:02:16;9.10;99.90
45549;DHT22;31270;48.328;10.096;2024-01-30T15:04:41;9.00;99.90
45549;DHT22;31270;48.328;10.096;2024-01-30T15:07:07;8.90;99.90
45549;DHT22;31270;48.328;10.096;2024-01-30T15:09:33;8.90;99.90
45549;DHT22;31270;48.328;10.096;2024-01-30T15:11:58;8.90;99.90
45549;DHT22;31270;48.328;10.096;2024-01-30T15:14:24;8.80;99.90
45549;DHT22;31270;48.328;10.096;2024-01-30T15:16:50;8.80;99.90
45549;DHT22;31270;48.328;10.096;2024-01-30T15:19:15;8.80;99.90
45549;DHT22;31270;48.328;10.096;2024-01-30T15:21:41;8.80;99.90
45549;DHT22;31270;48.328;10.096;2024-01-30T15:24:07;8.70;99.90
45549;DHT22;31270;48.328;10.096;2024-01-30T15:26:33;8.70;99.90
45549;DHT22;31270;48.328;10.096;2024-01-30T15:28:58;8.60;99.90